Time;durP1;ratioP1;P1;durP2;ratioP2;P2;SDS_P1;SDS_P2;PMS_P1;PMS_P2;Temp;Humidity;BMP_temperature;BMP_pressure;BME280_temperature;BME280_humidity;BME280_pressure;Samples;Min_cycle;Max_cycle;Signal;HPM_P1;HPM_P2
2022/12/16 00:01:10;;;;;;;88.22;37.83;;;;;;;-4.55;83.19;100137.70;1783049;80;25768;-76
2022/12/16 00:03:37;;;;;;;85.20;37.67;;;;;;;-4.60;83.22;100137.53;1754425;80;25092;-73
2022/12/16 00:06:06;;;;;;;84.17;36.70;;;;;;;-4.60;83.21;100139.37;1753103;80;27379;-75
2022/12/16 00:08:36;;;;;;;80.00;35.92;;;;;;;-4.62;83.21;100131.66;1783660;80;25156;-75
2022/12/16 00:11:03;;;;;;;97.72;38.83;;;;;;;-4.63;83.25;100133.19;1782896;80;25467;-74
2022/12/16 00:13:31;;;;;;;86.90;37.38;;;;;;;-4.66;83.27;100130.48;1751608;80;25933;-73
2022/12/16 00:15:58;;;;;;;88.05;37.75;;;;;;;-4.67;83.33;100135.45;1752166;80;25455;-73
2022/12/16 00:18:25;;;;;;;88.80;36.73;;;;;;;-4.69;83.48;100133.53;1782518;80;27946;-73
2022/12/16 00:20:53;;;;;;;86.63;35.85;;;;;;;-4.69;83.48;100130.89;1782371;80;25387;-72
2022/12/16 00:23:20;;;;;;;85.27;37.37;;;;;;;-4.72;83.40;100123.40;1782042;80;25523;-73
2022/12/16 00:25:47;;;;;;;87.22;36.90;;;;;;;-4.73;83.46;100126.55;1782342;79;26520;-73
2022/12/16 00:28:16;;;;;;;89.32;36.85;;;;;;;-4.74;83.45;100119.65;1751801;80;25437;-73
2022/12/16 00:30:43;;;;;;;62.57;26.50;;;;;;;-4.75;83.42;100125.13;1782930;80;27349;-73
2022/12/16 00:33:10;;;;;;;86.97;36.10;;;;;;;-4.78;83.42;100129.54;1782442;80;25423;-73
2022/12/16 00:35:37;;;;;;;89.55;38.25;;;;;;;-4.79;83.42;100143.74;1782508;79;25477;-73
2022/12/16 00:38:03;;;;;;;97.35;40.38;;;;;;;-4.84;83.47;100129.86;1782498;80;25652;-73
2022/12/16 00:40:32;;;;;;;87.85;39.63;;;;;;;-4.81;83.48;100141.31;1782594;80;25388;-73
2022/12/16 00:42:59;;;;;;;99.42;40.33;;;;;;;-4.83;83.47;100133.33;1782679;79;27377;-73
2022/12/16 00:45:25;;;;;;;89.37;40.33;;;;;;;-4.84;83.48;100129.86;1782431;80;25373;-73
2022/12/16 00:47:52;;;;;;;102.12;40.10;;;;;;;-4.84;83.57;100130.38;1782474;80;25435;-73
2022/12/16 00:50:20;;;;;;;95.12;40.05;;;;;;;-4.84;83.64;100133.02;1782507;80;25612;-73
2022/12/16 00:52:48;;;;;;;94.15;40.15;;;;;;;-4.85;83.59;100131.38;1782597;80;25453;-71
2022/12/16 00:55:16;;;;;;;104.53;41.20;;;;;;;-4.87;83.67;100131.59;1782596;80;27307;-72
2022/12/16 00:57:43;;;;;;;92.57;40.48;;;;;;;-4.85;83.70;100128.74;1782443;80;25372;-73
2022/12/16 01:00:13;;;;;;;95.97;39.70;;;;;;;-4.86;83.67;100126.62;1782528;79;25446;-73
2022/12/16 01:02:45;;;;;;;101.35;38.48;;;;;;;-4.86;83.66;100130.58;1782433;80;26250;-73
2022/12/16 01:05:15;;;;;;;94.87;38.73;;;;;;;-4.86;83.69;100141.14;1782554;79;25394;-73
2022/12/16 01:07:42;;;;;;;97.42;39.13;;;;;;;-4.85;83.77;100130.06;1782496;80;27347;-73
2022/12/16 01:10:10;;;;;;;94.28;40.17;;;;;;;-4.85;83.85;100130.89;1751888;80;25426;-73
2022/12/16 01:12:37;;;;;;;92.00;38.13;;;;;;;-4.88;83.84;100126.83;1782525;80;25390;-73
2022/12/16 01:15:07;;;;;;;85.17;39.15;;;;;;;-4.89;83.81;100123.91;1782469;80;25629;-72
2022/12/16 01:17:34;;;;;;;;;;;;;;;-4.89;83.83;100128.36;1754742;80;25485;-72
2022/12/16 01:20:01;;;;;;;89.20;36.35;;;;;;;-4.89;83.90;100128.36;1782550;79;27377;-72
2022/12/16 01:22:31;;;;;;;84.65;37.35;;;;;;;-4.91;83.89;100128.56;1782411;80;25465;-72
2022/12/16 01:24:59;;;;;;;83.33;34.65;;;;;;;-4.91;83.95;100126.45;1782496;80;25441;-72
2022/12/16 01:27:26;;;;;;;86.45;37.00;;;;;;;-4.92;83.96;100121.69;1782443;80;25685;-72
2022/12/16 01:29:52;;;;;;;91.75;38.08;;;;;;;-4.91;84.00;100117.21;1782548;79;25401;-72
2022/12/16 01:32:19;;;;;;;81.92;33.63;;;;;;;-4.92;84.00;100115.09;1751825;80;27329;-72
2022/12/16 01:34:51;;;;;;;80.70;33.98;;;;;;;-4.94;84.09;100122.42;1794158;79;25425;-72
2022/12/16 01:37:18;;;;;;;81.02;33.55;;;;;;;-4.93;84.04;100131.94;1814907;79;25467;-72
2022/12/16 01:39:44;;;;;;;80.20;33.28;;;;;;;-4.94;84.09;100135.61;1814841;79;26151;-72
2022/12/16 01:42:14;;;;;;;72.60;32.75;;;;;;;-4.93;84.06;100138.53;1814917;79;25477;-73
2022/12/16 01:44:47;;;;;;;71.12;32.25;;;;;;;-4.94;83.98;100140.89;1814861;79;27403;-72
2022/12/16 01:47:18;;;;;;;75.65;31.10;;;;;;;-4.95;84.01;100136.62;1791651;79;25992;-72
2022/12/16 01:49:55;;;;;;;76.30;33.33;;;;;;;-4.96;83.93;100122.31;1792060;79;25410;-74
2022/12/16 01:52:29;;;;;;;72.53;31.82;;;;;;;-4.98;83.94;100108.02;1814849;79;25683;-74
2022/12/16 01:55:04;;;;;;;74.87;33.50;;;;;;;-4.99;83.97;100098.98;1792192;79;25388;-74
2022/12/16 01:57:39;;;;;;;72.35;30.27;;;;;;;-4.99;83.96;100093.70;1814821;78;27406;-72
2022/12/16 02:00:07;;;;;;;70.25;29.23;;;;;;;-5.02;83.93;100085.72;1813922;78;25377;-74
2022/12/16 02:02:34;;;;;;;81.95;31.50;;;;;;;-5.04;83.95;100080.34;1814866;79;25402;-73
2022/12/16 02:08:03;;;;;;;73.70;31.85;;;;;;;-5.08;83.96;100083.92;1814877;78;25461;-72
2022/12/16 02:10:53;;;;;;;77.70;32.78;;;;;;;-5.11;84.10;100090.44;1814188;78;27867;-72
2022/12/16 02:13:51;;;;;;;76.12;31.57;;;;;;;-5.11;84.13;100086.97;1724678;82;25454;-72
2022/12/16 02:16:32;;;;;;;88.07;32.30;;;;;;;-5.11;84.21;100088.29;1700179;83;25457;-72
2022/12/16 02:19:20;;;;;;;76.02;31.35;;;;;;;-5.13;84.21;100087.17;1724386;83;25616;-72
2022/12/16 02:22:09;;;;;;;73.85;30.08;;;;;;;-5.12;84.22;100074.30;1689820;84;25524;-72
2022/12/16 02:25:14;;;;;;;71.65;30.12;;;;;;;-5.15;84.18;100065.48;1689907;84;27336;-72
2022/12/16 02:28:04;;;;;;;72.92;32.20;;;;;;;-5.16;84.23;100057.78;1719709;83;25420;-72
2022/12/16 02:30:42;;;;;;;78.17;31.55;;;;;;;-5.18;84.26;100063.78;1634933;87;25470;-72
2022/12/16 02:33:41;;;;;;;80.12;32.15;;;;;;;-5.19;84.32;100066.94;1635074;87;26633;-71
2022/12/16 02:36:33;;;;;;;73.80;30.68;;;;;;;-5.20;84.35;100069.27;1655456;84;25415;-72
2022/12/16 02:39:17;;;;;;;76.90;30.50;;;;;;;-5.19;84.45;100066.11;1653192;86;27313;-72
2022/12/16 02:42:03;;;;;;;75.47;31.00;;;;;;;-5.21;84.32;100071.63;1653354;86;25514;-72
2022/12/16 02:44:35;;;;;;;73.45;31.35;;;;;;;-5.21;84.40;100068.16;1653458;86;25436;-72
2022/12/16 02:47:02;;;;;;;77.95;32.03;;;;;;;-5.21;84.50;100065.52;1625818;88;25971;-73
2022/12/16 02:49:34;;;;;;;76.85;31.30;;;;;;;-5.21;84.55;100065.03;1631391;85;25680;-74
2022/12/16 02:52:01;;;;;;;78.67;31.42;;;;;;;-5.21;84.48;100059.75;1690805;84;27510;-74
2022/12/16 02:54:27;;;;;;;79.77;32.35;;;;;;;-5.21;84.47;100051.84;1686569;84;25534;-73
2022/12/16 02:57:12;;;;;;;74.67;31.02;;;;;;;-5.22;84.53;100048.09;1690369;84;25482;-73
2022/12/16 02:59:50;;;;;;;74.25;31.07;;;;;;;-5.19;84.60;100051.61;1726130;83;25616;-73
2022/12/16 03:02:54;;;;;;;74.77;30.52;;;;;;;-5.20;84.62;100050.01;1686325;84;25499;-73
2022/12/16 03:05:35;;;;;;;75.12;31.12;;;;;;;-5.21;84.63;100041.30;1726408;83;28135;-73
2022/12/16 03:08:09;;;;;;;72.62;29.20;;;;;;;-5.20;84.58;100024.95;1716807;82;25444;-73
2022/12/16 03:10:43;;;;;;;76.82;29.90;;;;;;;-5.23;84.54;100014.30;1745663;81;25462;-73
2022/12/16 03:13:12;;;;;;;72.67;29.50;;;;;;;-5.23;84.60;100012.19;1718839;82;26368;-73
2022/12/16 03:15:40;;;;;;;51.90;23.22;;;;;;;-5.23;84.59;100010.87;1787845;80;25490;-73
2022/12/16 03:18:10;;;;;;;70.03;29.70;;;;;;;-5.23;84.61;100008.23;1787670;80;27313;-73
2022/12/16 03:20:49;;;;;;;73.12;30.85;;;;;;;-5.24;84.64;100006.11;1787738;80;25573;-73
2022/12/16 03:23:21;;;;;;;73.28;30.65;;;;;;;-5.23;84.64;100018.78;1787723;80;25488;-73
2022/12/16 03:25:50;;;;;;;66.53;28.57;;;;;;;-5.23;84.64;100030.13;1814977;79;25760;-74
2022/12/16 03:28:39;;;;;;;81.15;32.63;;;;;;;-5.24;84.69;100024.57;1814966;79;25433;-74
2022/12/16 03:31:23;;;;;;;70.52;29.65;;;;;;;-5.21;84.66;100018.05;1814988;79;27314;-73
2022/12/16 03:33:57;;;;;;;70.47;29.07;;;;;;;-5.23;84.58;100011.67;1785466;79;25415;-73
2022/12/16 03:36:26;;;;;;;69.32;29.52;;;;;;;-5.22;84.66;100014.61;1810263;78;25473;-73
2022/12/16 03:38:54;;;;;;;67.58;30.12;;;;;;;-5.22;84.66;100017.77;1809331;79;25581;-72
2022/12/16 03:41:22;;;;;;;67.87;29.27;;;;;;;-5.23;84.67;100016.94;1809268;79;25448;-72
2022/12/16 03:43:50;;;;;;;76.70;31.62;;;;;;;-5.23;84.59;100016.94;1809237;79;27845;-73
2022/12/16 03:46:17;;;;;;;78.00;31.33;;;;;;;-5.24;84.60;100007.43;1809076;79;25688;-72
2022/12/16 03:48:51;;;;;;;72.78;31.02;;;;;;;-5.24;84.68;100006.11;1809208;79;25475;-72
2022/12/16 03:51:19;;;;;;;71.25;29.32;;;;;;;-5.23;84.73;99999.00;1809186;79;26192;-73
2022/12/16 03:53:45;;;;;;;82.27;32.25;;;;;;;-5.21;84.77;99996.95;1809260;79;25432;-72
2022/12/16 03:56:12;;;;;;;73.78;30.70;;;;;;;-5.22;84.64;99998.79;1809196;79;27864;-73
2022/12/16 03:58:39;;;;;;;71.25;31.75;;;;;;;-5.22;84.68;99990.08;1809076;79;25582;-74
2022/12/16 04:01:08;;;;;;;73.55;30.20;;;;;;;-5.22;84.63;99984.81;1809244;79;25391;-74
2022/12/16 04:03:36;;;;;;;79.12;31.95;;;;;;;-5.25;84.53;99975.48;1786659;79;25719;-75
2022/12/16 04:06:05;;;;;;;75.12;32.33;;;;;;;-5.29;84.52;99978.25;1809228;79;25424;-75
2022/12/16 04:08:31;;;;;;;83.23;36.60;;;;;;;-5.29;84.69;99987.48;1809427;79;27936;-75
2022/12/16 04:25:10;;;;;;;82.42;33.83;;;;;;;-5.36;84.80;99965.11;1809162;79;25448;-74
2022/12/16 04:27:36;;;;;;;78.42;31.90;;;;;;;-5.34;84.86;99964.89;1808763;78;25047;-74
2022/12/16 04:30:19;;;;;;;75.03;31.87;;;;;;;-5.37;84.92;99966.11;1809204;79;25672;-74
